Terminal Aerodrome Forecast
Issued by NWS Louisville, KY

Home | Current Version | Previous Version | Text Only | Print | Product List | Glossary On
Versions: 1 2 3 4 5 6 7 8 9 10 11 12 13 14 15 16 17 18 19
000
FTUS43 KLMK 161000 AAC
TAFBWG
TAF AMD
KBWG 161027Z 1610/1706 12008KT 3SM -TSRA BR BKN025CB
      TEMPO 1610/1614 VRB10G20KT 1SM -TSRA BR BKN012CB
     FM161400 17010KT P6SM SHRA BKN015
     FM161800 19008KT P6SM BKN040=

USA.gov is the U.S. government's official web portal to all federal, state and local government web resources and services.